sensor_id;sensor_type;location;lat;lon;timestamp;pressure;altitude;pressure_sealevel;temperature;humidity
4273;BME280;63887;53.656;9.810;2023-03-18T00:00:05;100738.84;;;8.60;78.00
4273;BME280;63887;53.656;9.810;2023-03-18T00:02:34;100741.38;;;8.61;77.69
4273;BME280;63887;53.656;9.810;2023-03-18T00:05:00;100736.22;;;8.60;78.15
4273;BME280;63887;53.656;9.810;2023-03-18T00:07:27;100722.53;;;8.55;78.11
4273;BME280;63887;53.656;9.810;2023-03-18T00:09:53;100723.59;;;8.70;77.75
4273;BME280;63887;53.656;9.810;2023-03-18T00:12:20;100731.44;;;8.70;77.30
4273;BME280;63887;53.656;9.810;2023-03-18T00:14:46;100731.28;;;8.73;77.19
4273;BME280;63887;53.656;9.810;2023-03-18T00:17:14;100726.06;;;8.73;77.38
4273;BME280;63887;53.656;9.810;2023-03-18T00:19:40;100725.97;;;8.74;77.14
4273;BME280;63887;53.656;9.810;2023-03-18T00:22:07;100717.50;;;8.69;77.68
4273;BME280;63887;53.656;9.810;2023-03-18T00:24:34;100722.75;;;8.69;77.96
4273;BME280;63887;53.656;9.810;2023-03-18T00:27:01;100725.44;;;8.68;78.00
4273;BME280;63887;53.656;9.810;2023-03-18T00:29:27;100724.94;;;8.78;77.20
4273;BME280;63887;53.656;9.810;2023-03-18T00:31:55;100725.13;;;8.74;77.55
4273;BME280;63887;53.656;9.810;2023-03-18T00:34:23;100730.28;;;8.75;77.36
4273;BME280;63887;53.656;9.810;2023-03-18T00:36:50;100727.75;;;8.74;77.39
4273;BME280;63887;53.656;9.810;2023-03-18T00:39:21;100726.16;;;8.88;76.76
4273;BME280;63887;53.656;9.810;2023-03-18T00:41:50;100724.91;;;9.14;75.32
4273;BME280;63887;53.656;9.810;2023-03-18T00:44:18;100730.72;;;9.02;75.67
4273;BME280;63887;53.656;9.810;2023-03-18T00:46:45;100725.97;;;8.93;76.35
4273;BME280;63887;53.656;9.810;2023-03-18T00:49:11;100730.88;;;8.99;76.19
4273;BME280;63887;53.656;9.810;2023-03-18T00:51:39;100724.56;;;9.03;75.81
4273;BME280;63887;53.656;9.810;2023-03-18T00:54:09;100721.97;;;9.20;74.87
4273;BME280;63887;53.656;9.810;2023-03-18T00:56:37;100722.91;;;9.19;75.29
4273;BME280;63887;53.656;9.810;2023-03-18T00:59:04;100726.28;;;9.21;75.26
4273;BME280;63887;53.656;9.810;2023-03-18T01:01:31;100730.63;;;9.40;73.55
4273;BME280;63887;53.656;9.810;2023-03-18T01:03:58;100726.25;;;9.40;74.14
4273;BME280;63887;53.656;9.810;2023-03-18T01:06:27;100730.47;;;9.43;73.39
4273;BME280;63887;53.656;9.810;2023-03-18T01:08:56;100727.47;;;9.68;72.63
4273;BME280;63887;53.656;9.810;2023-03-18T01:11:24;100730.38;;;9.62;72.76
4273;BME280;63887;53.656;9.810;2023-03-18T01:13:51;100728.84;;;9.57;72.80
4273;BME280;63887;53.656;9.810;2023-03-18T01:16:19;100732.06;;;9.63;72.58
4273;BME280;63887;53.656;9.810;2023-03-18T01:18:46;100733.69;;;9.48;73.21
4273;BME280;63887;53.656;9.810;2023-03-18T01:21:13;100736.69;;;9.57;73.32
4273;BME280;63887;53.656;9.810;2023-03-18T01:23:39;100731.53;;;9.56;73.22
4273;BME280;63887;53.656;9.810;2023-03-18T01:26:08;100734.34;;;9.86;72.61
4273;BME280;63887;53.656;9.810;2023-03-18T01:28:35;100729.59;;;9.77;72.19
4273;BME280;63887;53.656;9.810;2023-03-18T01:31:01;100731.06;;;9.82;72.79
4273;BME280;63887;53.656;9.810;2023-03-18T01:33:28;100733.72;;;9.81;72.90
4273;BME280;63887;53.656;9.810;2023-03-18T01:35:57;100736.28;;;9.65;73.21
4273;BME280;63887;53.656;9.810;2023-03-18T01:38:24;100738.78;;;9.68;73.13
4273;BME280;63887;53.656;9.810;2023-03-18T01:40:51;100738.00;;;9.83;72.59
4273;BME280;63887;53.656;9.810;2023-03-18T01:43:21;100730.22;;;9.82;72.29
4273;BME280;63887;53.656;9.810;2023-03-18T01:45:49;100734.94;;;9.91;71.86
4273;BME280;63887;53.656;9.810;2023-03-18T01:48:18;100732.53;;;10.04;71.19
4273;BME280;63887;53.656;9.810;2023-03-18T01:50:46;100728.88;;;9.91;71.27
4273;BME280;63887;53.656;9.810;2023-03-18T01:53:15;100733.25;;;9.90;72.17
4273;BME280;63887;53.656;9.810;2023-03-18T01:55:44;100736.13;;;9.85;72.51
4273;BME280;63887;53.656;9.810;2023-03-18T01:58:15;100736.75;;;9.73;73.64
4273;BME280;63887;53.656;9.810;2023-03-18T02:00:54;100735.66;;;10.10;70.83
4273;BME280;63887;53.656;9.810;2023-03-18T02:03:23;100736.78;;;10.06;71.31
4273;BME280;63887;53.656;9.810;2023-03-18T02:05:52;100744.59;;;9.91;72.49
4273;BME280;63887;53.656;9.810;2023-03-18T02:08:19;100741.13;;;9.90;72.08
4273;BME280;63887;53.656;9.810;2023-03-18T02:10:46;100743.06;;;9.86;73.11
4273;BME280;63887;53.656;9.810;2023-03-18T02:13:14;100740.28;;;9.90;73.40
4273;BME280;63887;53.656;9.810;2023-03-18T02:15:47;100748.31;;;9.86;73.79
4273;BME280;63887;53.656;9.810;2023-03-18T02:18:16;100754.53;;;10.01;73.74
4273;BME280;63887;53.656;9.810;2023-03-18T02:20:54;100756.13;;;10.04;73.89
4273;BME280;63887;53.656;9.810;2023-03-18T02:23:27;100756.16;;;10.20;73.76
4273;BME280;63887;53.656;9.810;2023-03-18T02:26:01;100746.50;;;10.37;74.11
4273;BME280;63887;53.656;9.810;2023-03-18T02:28:30;100743.00;;;10.21;75.08
4273;BME280;63887;53.656;9.810;2023-03-18T02:31:00;100751.94;;;10.17;76.02
4273;BME280;63887;53.656;9.810;2023-03-18T02:33:30;100744.03;;;10.01;77.11
4273;BME280;63887;53.656;9.810;2023-03-18T02:36:01;100744.34;;;9.95;78.50
4273;BME280;63887;53.656;9.810;2023-03-18T02:38:28;100749.41;;;10.15;76.00
4273;BME280;63887;53.656;9.810;2023-03-18T02:40:55;100754.16;;;10.25;77.50
4273;BME280;63887;53.656;9.810;2023-03-18T02:43:24;100752.25;;;10.11;77.67
4273;BME280;63887;53.656;9.810;2023-03-18T02:46:10;100765.59;;;10.06;77.81
4273;BME280;63887;53.656;9.810;2023-03-18T02:48:40;100757.31;;;9.98;79.14
4273;BME280;63887;53.656;9.810;2023-03-18T02:51:08;100753.91;;;9.79;80.02
4273;BME280;63887;53.656;9.810;2023-03-18T02:53:36;100762.34;;;9.68;81.22
4273;BME280;63887;53.656;9.810;2023-03-18T02:56:03;100766.66;;;9.69;81.74
4273;BME280;63887;53.656;9.810;2023-03-18T02:58:30;100766.81;;;10.16;78.74
4273;BME280;63887;53.656;9.810;2023-03-18T03:00:56;100761.44;;;10.02;80.30
4273;BME280;63887;53.656;9.810;2023-03-18T03:03:25;100762.72;;;9.78;81.35
4273;BME280;63887;53.656;9.810;2023-03-18T03:05:52;100758.03;;;9.84;80.74
4273;BME280;63887;53.656;9.810;2023-03-18T03:08:18;100759.72;;;9.68;82.32
4273;BME280;63887;53.656;9.810;2023-03-18T03:10:45;100768.88;;;9.77;81.39
4273;BME280;63887;53.656;9.810;2023-03-18T03:13:15;100762.25;;;10.20;78.99
4273;BME280;63887;53.656;9.810;2023-03-18T03:15:41;100756.47;;;9.80;80.93
4273;BME280;63887;53.656;9.810;2023-03-18T03:18:08;100762.41;;;9.84;81.66
4273;BME280;63887;53.656;9.810;2023-03-18T03:20:37;100760.22;;;9.92;82.66
4273;BME280;63887;53.656;9.810;2023-03-18T03:23:04;100760.22;;;9.92;81.80
4273;BME280;63887;53.656;9.810;2023-03-18T03:25:31;100760.78;;;9.99;82.23
4273;BME280;63887;53.656;9.810;2023-03-18T03:27:58;100758.75;;;10.04;81.32
4273;BME280;63887;53.656;9.810;2023-03-18T03:30:25;100750.84;;;9.88;82.65
4273;BME280;63887;53.656;9.810;2023-03-18T03:32:51;100746.91;;;9.79;83.04
4273;BME280;63887;53.656;9.810;2023-03-18T03:35:19;100753.69;;;9.66;83.63
4273;BME280;63887;53.656;9.810;2023-03-18T03:37:47;100740.75;;;9.80;82.55
4273;BME280;63887;53.656;9.810;2023-03-18T03:40:16;100726.38;;;9.72;82.61
4273;BME280;63887;53.656;9.810;2023-03-18T03:42:43;100740.38;;;9.71;83.41
4273;BME280;63887;53.656;9.810;2023-03-18T03:45:11;100746.09;;;9.62;84.57
4273;BME280;63887;53.656;9.810;2023-03-18T03:47:38;100753.09;;;9.61;85.11
4273;BME280;63887;53.656;9.810;2023-03-18T03:50:06;100750.56;;;9.60;85.19
4273;BME280;63887;53.656;9.810;2023-03-18T03:52:32;100758.09;;;9.48;85.76
4273;BME280;63887;53.656;9.810;2023-03-18T03:55:00;100760.03;;;9.45;86.45
4273;BME280;63887;53.656;9.810;2023-03-18T03:57:27;100759.03;;;9.47;86.73
4273;BME280;63887;53.656;9.810;2023-03-18T03:59:53;100754.72;;;9.64;85.40
4273;BME280;63887;53.656;9.810;2023-03-18T04:02:20;100749.72;;;9.42;86.07
4273;BME280;63887;53.656;9.810;2023-03-18T04:04:47;100753.41;;;9.55;85.87
4273;BME280;63887;53.656;9.810;2023-03-18T04:07:14;100754.72;;;9.64;85.71
4273;BME280;63887;53.656;9.810;2023-03-18T04:09:41;100763.50;;;9.63;84.76
4273;BME280;63887;53.656;9.810;2023-03-18T04:12:09;100761.72;;;9.63;85.68
4273;BME280;63887;53.656;9.810;2023-03-18T04:14:36;100766.41;;;9.74;84.79
4273;BME280;63887;53.656;9.810;2023-03-18T04:17:03;100770.34;;;9.82;84.64
4273;BME280;63887;53.656;9.810;2023-03-18T04:19:30;100769.81;;;9.76;83.65
4273;BME280;63887;53.656;9.810;2023-03-18T04:21:58;100771.56;;;9.75;84.36
4273;BME280;63887;53.656;9.810;2023-03-18T04:24:24;100780.50;;;9.89;82.86
4273;BME280;63887;53.656;9.810;2023-03-18T04:26:51;100777.66;;;9.76;83.93
4273;BME280;63887;53.656;9.810;2023-03-18T04:29:19;100776.97;;;9.90;82.91
4273;BME280;63887;53.656;9.810;2023-03-18T04:31:47;100767.56;;;9.85;82.98
4273;BME280;63887;53.656;9.810;2023-03-18T04:34:13;100767.06;;;9.95;82.71
4273;BME280;63887;53.656;9.810;2023-03-18T04:36:39;100769.63;;;9.96;82.69
4273;BME280;63887;53.656;9.810;2023-03-18T04:39:06;100772.59;;;9.73;83.58
4273;BME280;63887;53.656;9.810;2023-03-18T04:41:33;100767.19;;;9.76;83.60
4273;BME280;63887;53.656;9.810;2023-03-18T04:44:00;100771.81;;;9.71;84.02
4273;BME280;63887;53.656;9.810;2023-03-18T04:46:28;100761.19;;;10.07;82.57
4273;BME280;63887;53.656;9.810;2023-03-18T04:48:56;100776.16;;;10.05;81.70
4273;BME280;63887;53.656;9.810;2023-03-18T04:51:23;100772.31;;;10.12;82.34
4273;BME280;63887;53.656;9.810;2023-03-18T04:53:50;100776.31;;;10.02;82.81
4273;BME280;63887;53.656;9.810;2023-03-18T04:56:16;100761.38;;;10.04;82.33
4273;BME280;63887;53.656;9.810;2023-03-18T04:58:43;100763.50;;;10.30;81.36
4273;BME280;63887;53.656;9.810;2023-03-18T05:01:10;100778.97;;;9.84;83.18
4273;BME280;63887;53.656;9.810;2023-03-18T05:03:38;100789.16;;;9.73;84.04
4273;BME280;63887;53.656;9.810;2023-03-18T05:06:05;100797.31;;;9.84;83.67
4273;BME280;63887;53.656;9.810;2023-03-18T05:08:32;100800.16;;;9.80;84.18
4273;BME280;63887;53.656;9.810;2023-03-18T05:10:59;100801.13;;;10.12;82.93
4273;BME280;63887;53.656;9.810;2023-03-18T05:13:25;100787.25;;;10.10;82.92
4273;BME280;63887;53.656;9.810;2023-03-18T05:15:52;100791.31;;;9.82;84.41
4273;BME280;63887;53.656;9.810;2023-03-18T05:18:19;100795.53;;;9.85;84.62
4273;BME280;63887;53.656;9.810;2023-03-18T05:20:46;100791.16;;;9.85;84.43
4273;BME280;63887;53.656;9.810;2023-03-18T05:23:13;100791.34;;;9.81;84.73
4273;BME280;63887;53.656;9.810;2023-03-18T05:25:40;100789.78;;;10.11;83.64
4273;BME280;63887;53.656;9.810;2023-03-18T05:28:06;100793.28;;;10.12;83.76
4273;BME280;63887;53.656;9.810;2023-03-18T05:30:33;100792.72;;;10.05;84.14
4273;BME280;63887;53.656;9.810;2023-03-18T05:33:03;100798.16;;;9.85;85.42
4273;BME280;63887;53.656;9.810;2023-03-18T05:35:29;100805.94;;;9.86;85.21
4273;BME280;63887;53.656;9.810;2023-03-18T05:37:57;100793.19;;;10.13;84.39
4273;BME280;63887;53.656;9.810;2023-03-18T05:40:24;100792.75;;;9.88;85.29
4273;BME280;63887;53.656;9.810;2023-03-18T05:42:50;100795.38;;;9.88;85.13
4273;BME280;63887;53.656;9.810;2023-03-18T05:45:17;100799.59;;;9.91;85.21
4273;BME280;63887;53.656;9.810;2023-03-18T05:47:44;100796.06;;;9.92;85.37
4273;BME280;63887;53.656;9.810;2023-03-18T05:50:10;100795.53;;;9.85;85.91
4273;BME280;63887;53.656;9.810;2023-03-18T05:52:38;100798.06;;;10.04;84.82
4273;BME280;63887;53.656;9.810;2023-03-18T05:55:06;100803.06;;;9.91;85.30
4273;BME280;63887;53.656;9.810;2023-03-18T05:57:33;100808.91;;;10.13;84.59
4273;BME280;63887;53.656;9.810;2023-03-18T05:59:59;100806.16;;;9.99;85.35
4273;BME280;63887;53.656;9.810;2023-03-18T06:02:26;100805.84;;;10.05;85.22
4273;BME280;63887;53.656;9.810;2023-03-18T06:04:52;100811.63;;;9.95;85.27
4273;BME280;63887;53.656;9.810;2023-03-18T06:07:18;100816.47;;;10.02;85.37
4273;BME280;63887;53.656;9.810;2023-03-18T06:09:45;100825.47;;;9.97;85.22
4273;BME280;63887;53.656;9.810;2023-03-18T06:12:13;100817.50;;;9.82;86.03
4273;BME280;63887;53.656;9.810;2023-03-18T06:14:40;100825.75;;;10.27;84.57
4273;BME280;63887;53.656;9.810;2023-03-18T06:17:06;100831.19;;;10.05;84.83
4273;BME280;63887;53.656;9.810;2023-03-18T06:19:33;100835.44;;;9.90;85.75
4273;BME280;63887;53.656;9.810;2023-03-18T06:22:00;100831.19;;;10.55;82.87
4273;BME280;63887;53.656;9.810;2023-03-18T06:24:26;100836.06;;;10.30;83.95
4273;BME280;63887;53.656;9.810;2023-03-18T06:26:53;100835.03;;;10.15;84.59
4273;BME280;63887;53.656;9.810;2023-03-18T06:29:21;100831.53;;;9.99;85.62
4273;BME280;63887;53.656;9.810;2023-03-18T06:31:47;100831.53;;;9.99;85.62
4273;BME280;63887;53.656;9.810;2023-03-18T06:34:13;100826.81;;;10.05;85.83
4273;BME280;63887;53.656;9.810;2023-03-18T06:36:40;100824.97;;;10.40;84.28
4273;BME280;63887;53.656;9.810;2023-03-18T06:39:06;100828.41;;;10.08;85.76
4273;BME280;63887;53.656;9.810;2023-03-18T06:41:33;100837.72;;;10.48;83.96
4273;BME280;63887;53.656;9.810;2023-03-18T06:43:59;100834.97;;;10.34;84.68
4273;BME280;63887;53.656;9.810;2023-03-18T06:46:27;100836.66;;;10.18;85.35
4273;BME280;63887;53.656;9.810;2023-03-18T06:48:54;100837.34;;;10.38;84.78
4273;BME280;63887;53.656;9.810;2023-03-18T06:51:21;100845.44;;;10.34;85.27
4273;BME280;63887;53.656;9.810;2023-03-18T06:53:47;100851.50;;;10.52;84.55
4273;BME280;63887;53.656;9.810;2023-03-18T06:56:13;100849.16;;;10.63;83.70
4273;BME280;63887;53.656;9.810;2023-03-18T06:58:40;100855.28;;;10.79;83.60
4273;BME280;63887;53.656;9.810;2023-03-18T07:01:07;100857.97;;;10.78;83.20
4273;BME280;63887;53.656;9.810;2023-03-18T07:03:38;100866.88;;;10.75;83.29
4273;BME280;63887;53.656;9.810;2023-03-18T07:06:05;100864.56;;;10.85;82.48
4273;BME280;63887;53.656;9.810;2023-03-18T07:08:33;100862.16;;;11.13;81.96
4273;BME280;63887;53.656;9.810;2023-03-18T07:11:00;100880.34;;;11.00;81.78
4273;BME280;63887;53.656;9.810;2023-03-18T07:13:27;100878.16;;;11.09;82.20
4273;BME280;63887;53.656;9.810;2023-03-18T07:15:53;100877.66;;;11.18;80.96
4273;BME280;63887;53.656;9.810;2023-03-18T07:18:21;100886.03;;;10.93;82.34
4273;BME280;63887;53.656;9.810;2023-03-18T07:20:49;100885.00;;;10.95;82.63
4273;BME280;63887;53.656;9.810;2023-03-18T07:23:16;100887.38;;;11.00;82.50
4273;BME280;63887;53.656;9.810;2023-03-18T07:25:43;100889.75;;;11.04;82.38
4273;BME280;63887;53.656;9.810;2023-03-18T07:28:10;100885.09;;;11.25;81.68
4273;BME280;63887;53.656;9.810;2023-03-18T07:30:36;100897.06;;;11.31;81.47
4273;BME280;63887;53.656;9.810;2023-03-18T07:33:04;100903.75;;;11.37;80.64
4273;BME280;63887;53.656;9.810;2023-03-18T07:35:30;100897.38;;;11.09;82.17
4273;BME280;63887;53.656;9.810;2023-03-18T07:37:58;100903.22;;;11.61;80.23
4273;BME280;63887;53.656;9.810;2023-03-18T07:40:24;100910.03;;;11.96;78.19
4273;BME280;63887;53.656;9.810;2023-03-18T07:42:51;100910.13;;;11.94;78.83
4273;BME280;63887;53.656;9.810;2023-03-18T07:45:17;100914.59;;;12.08;78.90
4273;BME280;63887;53.656;9.810;2023-03-18T07:47:44;100917.38;;;11.90;78.75
4273;BME280;63887;53.656;9.810;2023-03-18T07:50:10;100920.59;;;12.10;78.40
4273;BME280;63887;53.656;9.810;2023-03-18T07:52:38;100926.44;;;11.85;79.90
4273;BME280;63887;53.656;9.810;2023-03-18T07:55:06;100929.47;;;11.93;78.94
4273;BME280;63887;53.656;9.810;2023-03-18T07:57:33;100926.06;;;12.07;78.58
4273;BME280;63887;53.656;9.810;2023-03-18T08:00:00;100937.03;;;12.13;77.75
4273;BME280;63887;53.656;9.810;2023-03-18T08:02:28;100936.53;;;12.22;77.04
4273;BME280;63887;53.656;9.810;2023-03-18T08:04:56;100933.69;;;11.96;78.55
4273;BME280;63887;53.656;9.810;2023-03-18T08:07:23;100934.41;;;11.52;80.26
4273;BME280;63887;53.656;9.810;2023-03-18T08:09:49;100939.00;;;11.80;79.11
4273;BME280;63887;53.656;9.810;2023-03-18T08:12:17;100945.84;;;11.82;79.63
4273;BME280;63887;53.656;9.810;2023-03-18T08:14:44;100949.56;;;11.94;78.42
4273;BME280;63887;53.656;9.810;2023-03-18T08:17:10;100947.25;;;11.72;79.65
4273;BME280;63887;53.656;9.810;2023-03-18T08:19:37;100954.91;;;11.77;79.60
4273;BME280;63887;53.656;9.810;2023-03-18T08:22:03;100947.88;;;11.93;78.19
4273;BME280;63887;53.656;9.810;2023-03-18T08:24:30;100951.00;;;11.68;80.21
4273;BME280;63887;53.656;9.810;2023-03-18T08:26:57;100963.75;;;11.91;78.95
4273;BME280;63887;53.656;9.810;2023-03-18T08:29:24;100955.59;;;11.64;80.56
4273;BME280;63887;53.656;9.810;2023-03-18T08:31:51;100962.00;;;11.75;79.79
4273;BME280;63887;53.656;9.810;2023-03-18T08:34:18;100966.50;;;12.04;78.95
4273;BME280;63887;53.656;9.810;2023-03-18T08:36:45;100974.03;;;12.10;77.69
4273;BME280;63887;53.656;9.810;2023-03-18T08:39:11;100973.66;;;12.16;77.88
4273;BME280;63887;53.656;9.810;2023-03-18T08:41:38;100973.03;;;11.65;79.53
4273;BME280;63887;53.656;9.810;2023-03-18T08:44:06;100977.00;;;11.41;80.79
4273;BME280;63887;53.656;9.810;2023-03-18T08:46:36;100984.41;;;11.50;79.96
4273;BME280;63887;53.656;9.810;2023-03-18T08:49:02;100995.00;;;11.49;79.95
4273;BME280;63887;53.656;9.810;2023-03-18T08:51:29;100999.84;;;11.08;82.27
4273;BME280;63887;53.656;9.810;2023-03-18T08:53:56;100997.06;;;11.26;81.22
4273;BME280;63887;53.656;9.810;2023-03-18T08:56:23;101005.56;;;11.31;80.92
4273;BME280;63887;53.656;9.810;2023-03-18T08:58:50;101017.94;;;11.45;80.88
4273;BME280;63887;53.656;9.810;2023-03-18T09:01:18;101021.44;;;11.61;80.35
4273;BME280;63887;53.656;9.810;2023-03-18T09:03:47;101010.06;;;11.45;80.61
4273;BME280;63887;53.656;9.810;2023-03-18T09:06:14;101018.41;;;11.20;81.67
4273;BME280;63887;53.656;9.810;2023-03-18T09:08:41;101012.63;;;11.14;82.49
4273;BME280;63887;53.656;9.810;2023-03-18T09:11:09;101015.28;;;11.29;82.07
4273;BME280;63887;53.656;9.810;2023-03-18T09:13:35;101009.81;;;11.34;82.18
4273;BME280;63887;53.656;9.810;2023-03-18T09:16:03;101021.44;;;11.46;81.64
4273;BME280;63887;53.656;9.810;2023-03-18T09:18:30;101026.16;;;11.39;82.14
4273;BME280;63887;53.656;9.810;2023-03-18T09:20:58;101031.88;;;11.30;82.88
4273;BME280;63887;53.656;9.810;2023-03-18T09:23:24;101027.06;;;11.22;83.47
4273;BME280;63887;53.656;9.810;2023-03-18T09:25:52;101030.41;;;11.73;80.19
4273;BME280;63887;53.656;9.810;2023-03-18T09:28:19;101025.50;;;11.67;79.53
4273;BME280;63887;53.656;9.810;2023-03-18T09:30:45;101029.28;;;11.79;79.92
4273;BME280;63887;53.656;9.810;2023-03-18T09:33:12;101027.59;;;11.60;81.45
4273;BME280;63887;53.656;9.810;2023-03-18T09:35:40;101034.59;;;11.61;81.08
4273;BME280;63887;53.656;9.810;2023-03-18T09:38:10;101026.09;;;11.56;81.08
4273;BME280;63887;53.656;9.810;2023-03-18T09:40:47;101038.03;;;11.46;81.51
4273;BME280;63887;53.656;9.810;2023-03-18T09:43:25;101038.88;;;11.47;81.56
4273;BME280;63887;53.656;9.810;2023-03-18T09:46:01;101048.78;;;11.57;80.71
4273;BME280;63887;53.656;9.810;2023-03-18T09:48:45;101053.28;;;11.55;81.62
4273;BME280;63887;53.656;9.810;2023-03-18T09:51:26;101053.25;;;12.04;79.77
4273;BME280;63887;53.656;9.810;2023-03-18T09:53:59;101056.19;;;11.67;81.60
4273;BME280;63887;53.656;9.810;2023-03-18T09:56:29;101059.50;;;12.33;78.23
4273;BME280;63887;53.656;9.810;2023-03-18T09:59:00;101046.72;;;12.11;79.65
4273;BME280;63887;53.656;9.810;2023-03-18T10:01:29;101054.78;;;12.54;78.26
4273;BME280;63887;53.656;9.810;2023-03-18T10:04:02;101055.41;;;12.73;78.18
4273;BME280;63887;53.656;9.810;2023-03-18T10:06:30;101059.53;;;12.77;77.72
4273;BME280;63887;53.656;9.810;2023-03-18T10:09:06;101069.47;;;13.02;77.23
4273;BME280;63887;53.656;9.810;2023-03-18T10:11:36;101061.75;;;12.99;76.28
4273;BME280;63887;53.656;9.810;2023-03-18T10:14:19;101059.41;;;13.09;76.76
4273;BME280;63887;53.656;9.810;2023-03-18T10:16:54;101056.41;;;13.15;75.64
4273;BME280;63887;53.656;9.810;2023-03-18T10:19:23;101057.75;;;13.36;74.91
4273;BME280;63887;53.656;9.810;2023-03-18T10:22:00;101057.66;;;13.24;75.73
4273;BME280;63887;53.656;9.810;2023-03-18T10:24:38;101059.13;;;12.99;76.01
4273;BME280;63887;53.656;9.810;2023-03-18T10:27:13;101053.81;;;13.29;75.50
4273;BME280;63887;53.656;9.810;2023-03-18T10:29:45;101051.00;;;13.32;75.77
4273;BME280;63887;53.656;9.810;2023-03-18T10:32:22;101060.28;;;12.79;77.07
4273;BME280;63887;53.656;9.810;2023-03-18T10:35:07;101053.91;;;13.42;75.25
4273;BME280;63887;53.656;9.810;2023-03-18T10:37:45;101047.84;;;13.68;74.01
4273;BME280;63887;53.656;9.810;2023-03-18T10:40:18;101046.22;;;13.80;73.67
4273;BME280;63887;53.656;9.810;2023-03-18T10:42:47;101049.84;;;13.51;75.27
4273;BME280;63887;53.656;9.810;2023-03-18T10:45:22;101048.66;;;13.56;75.24
4273;BME280;63887;53.656;9.810;2023-03-18T10:47:55;101064.28;;;13.31;75.15
4273;BME280;63887;53.656;9.810;2023-03-18T10:50:30;101066.34;;;13.40;75.96
4273;BME280;63887;53.656;9.810;2023-03-18T10:53:01;101069.72;;;13.42;75.76
4273;BME280;63887;53.656;9.810;2023-03-18T10:55:34;101075.34;;;13.64;75.44
4273;BME280;63887;53.656;9.810;2023-03-18T10:58:13;101081.09;;;13.71;74.15
4273;BME280;63887;53.656;9.810;2023-03-18T11:00:40;101077.63;;;13.70;74.71
4273;BME280;63887;53.656;9.810;2023-03-18T11:03:18;101078.94;;;13.49;74.74
4273;BME280;63887;53.656;9.810;2023-03-18T11:05:45;101083.00;;;13.55;74.33
4273;BME280;63887;53.656;9.810;2023-03-18T11:08:27;101086.19;;;13.31;74.88
4273;BME280;63887;53.656;9.810;2023-03-18T11:11:01;101078.28;;;13.46;74.98
4273;BME280;63887;53.656;9.810;2023-03-18T11:13:45;101082.81;;;13.58;74.17
4273;BME280;63887;53.656;9.810;2023-03-18T11:16:20;101087.44;;;13.54;74.74
4273;BME280;63887;53.656;9.810;2023-03-18T11:18:48;101089.19;;;13.54;73.90
4273;BME280;63887;53.656;9.810;2023-03-18T11:21:17;101090.72;;;13.58;74.16
4273;BME280;63887;53.656;9.810;2023-03-18T11:23:51;101088.28;;;13.55;74.30
4273;BME280;63887;53.656;9.810;2023-03-18T11:26:43;101080.25;;;13.70;73.09
4273;BME280;63887;53.656;9.810;2023-03-18T11:29:15;101092.50;;;13.71;73.85
4273;BME280;63887;53.656;9.810;2023-03-18T11:31:50;101085.34;;;13.73;73.32
4273;BME280;63887;53.656;9.810;2023-03-18T11:34:19;101085.19;;;14.03;72.18
4273;BME280;63887;53.656;9.810;2023-03-18T11:36:54;101093.47;;;13.97;73.01
4273;BME280;63887;53.656;9.810;2023-03-18T11:39:23;101086.97;;;14.03;72.27
4273;BME280;63887;53.656;9.810;2023-03-18T11:41:52;101093.06;;;14.18;71.35
4273;BME280;63887;53.656;9.810;2023-03-18T11:44:24;101088.19;;;13.97;70.34
4273;BME280;63887;53.656;9.810;2023-03-18T11:46:54;101097.88;;;13.56;72.87
4273;BME280;63887;53.656;9.810;2023-03-18T11:49:26;101099.59;;;13.98;71.80
4273;BME280;63887;53.656;9.810;2023-03-18T11:52:05;101088.28;;;13.96;71.73
4273;BME280;63887;53.656;9.810;2023-03-18T11:54:54;101085.63;;;14.10;71.06
4273;BME280;63887;53.656;9.810;2023-03-18T11:57:29;101090.84;;;13.97;71.70
4273;BME280;63887;53.656;9.810;2023-03-18T12:00:11;101091.22;;;14.06;71.41
4273;BME280;63887;53.656;9.810;2023-03-18T12:03:21;101097.44;;;14.31;69.75
4273;BME280;63887;53.656;9.810;2023-03-18T12:06:04;101091.94;;;14.49;69.47
4273;BME280;63887;53.656;9.810;2023-03-18T12:08:45;101083.41;;;14.58;69.82
4273;BME280;63887;53.656;9.810;2023-03-18T12:11:20;101087.28;;;14.79;69.69
4273;BME280;63887;53.656;9.810;2023-03-18T12:13:59;101088.47;;;14.88;68.12
4273;BME280;63887;53.656;9.810;2023-03-18T12:16:38;101097.63;;;14.82;68.56
4273;BME280;63887;53.656;9.810;2023-03-18T12:19:38;101090.47;;;14.97;67.49
4273;BME280;63887;53.656;9.810;2023-03-18T12:22:25;101096.72;;;15.09;68.07
4273;BME280;63887;53.656;9.810;2023-03-18T12:27:59;101097.13;;;15.54;64.90
4273;BME280;63887;53.656;9.810;2023-03-18T12:30:46;101093.13;;;15.48;65.03
4273;BME280;63887;53.656;9.810;2023-03-18T12:33:25;101095.78;;;15.48;66.31
4273;BME280;63887;53.656;9.810;2023-03-18T12:36:03;101104.97;;;15.30;66.40
4273;BME280;63887;53.656;9.810;2023-03-18T12:38:49;101098.63;;;15.32;64.54
4273;BME280;63887;53.656;9.810;2023-03-18T12:41:22;101100.97;;;15.24;64.94
4273;BME280;63887;53.656;9.810;2023-03-18T12:44:04;101101.59;;;15.28;64.35
4273;BME280;63887;53.656;9.810;2023-03-18T12:46:38;101102.13;;;15.33;66.12
4273;BME280;63887;53.656;9.810;2023-03-18T12:49:11;101109.72;;;15.25;65.55
4273;BME280;63887;53.656;9.810;2023-03-18T12:51:47;101107.19;;;15.10;67.66
4273;BME280;63887;53.656;9.810;2023-03-18T12:54:19;101103.72;;;15.23;66.90
4273;BME280;63887;53.656;9.810;2023-03-18T12:56:50;101102.13;;;15.33;66.40
4273;BME280;63887;53.656;9.810;2023-03-18T12:59:25;101100.31;;;15.46;65.33
4273;BME280;63887;53.656;9.810;2023-03-18T13:02:11;101095.78;;;15.35;66.47
4273;BME280;63887;53.656;9.810;2023-03-18T13:04:47;101097.03;;;15.30;66.04
4273;BME280;63887;53.656;9.810;2023-03-18T13:07:20;101092.06;;;15.25;67.55
4273;BME280;63887;53.656;9.810;2023-03-18T13:09:53;101103.81;;;15.34;66.10
4273;BME280;63887;53.656;9.810;2023-03-18T13:12:25;101106.88;;;14.63;69.04
4273;BME280;63887;53.656;9.810;2023-03-18T13:14:57;101103.50;;;14.60;69.33
4273;BME280;63887;53.656;9.810;2023-03-18T13:17:30;101105.72;;;14.67;69.36
4273;BME280;63887;53.656;9.810;2023-03-18T13:19:58;101103.44;;;14.75;68.65